Overview Statistics Trail Chart Weather Telemetry Raw packets
 

This is the latest recevied weather packets stored in our database for station/object K7DC. If no packets are shown the sender has not sent any weather packets the latest 10 day(s).

<< 106 107 108 109 110 111 112 >>
Time Temp. Humidity Pressure Rain* Wind** Luminosity Snow
1787836066 27.78° C 44% 1016.4 hPa 0 mm - 12 W/m² -
1787835762 27.22° C 46% 1016.4 hPa 0 mm - 7 W/m² -
1787835462 26.11° C 48% 1016 hPa 0 mm - 4 W/m² -
1787835157 25.56° C 52% 1016 hPa 0 mm - 2 W/m² -
1787834856 25° C 57% 1016.1 hPa 0 mm - 1 W/m² -
1787834551 25° C 59% 1015.9 hPa 0 mm - 0 W/m² -
1787834246 25° C 61% 1015.8 hPa 0 mm - 0 W/m² -
1787833943 25° C 61% 1015.7 hPa 0 mm - 0 W/m² -
1787833643 25° C 62% 1015.7 hPa 0 mm - 0 W/m² -
1787833339 25° C 62% 1015.7 hPa 0 mm - 0 W/m² -
1787833034 25° C 62% 1015.7 hPa 0 mm - 0 W/m² -
1787832729 25° C 62% 1015.5 hPa 0 mm - 0 W/m² -
1787832429 25° C 62% 1015.3 hPa 0 mm - 0 W/m² -
1787832128 24.44° C 62% 1015.2 hPa 0 mm - 0 W/m² -
1787831826 24.44° C 62% 1015.2 hPa 0 mm - 0 W/m² -
1787831522 24.44° C 62% 1015.1 hPa 0 mm - 0 W/m² -
1787831220 24.44° C 61% 1015 hPa 0 mm - 0 W/m² -
1787830916 24.44° C 61% 1015.2 hPa 0 mm - 0 W/m² -
1787830616 25° C 59% 1015.1 hPa 0 mm - 0 W/m² -
1787830315 25° C 60% 1015.2 hPa 0 mm - 0 W/m² -
1787830010 25° C 59% 1015.1 hPa 0 mm - 0 W/m² -
1787829710 25° C 53% 1015.2 hPa 0 mm - 0 W/m² -
1787829405 25° C 52% 1015.2 hPa 0 mm - 0 W/m² -
1787829101 25.56° C 50% 1015 hPa 0 mm - 0 W/m² -
1787828801 26.11° C 50% 1015.1 hPa 0 mm - 0 W/m² -

* Rain latest hour (hover to see other rain measurements)
** Current wind speed in m/s (hover to see current wind gust speed)